Austwell, Texas
Current Conditions -  °F | °C
As of 6:55 AM on Friday 19 Dec 2014 (Local Time) from KPKV Reporting Station
Heavy Rain Heavy Rain  
Wind Chill: 16°   Ceiling: 800
Heat Index: 16°   Visibility: 7mi
Dew Point: 16°   Wind: 14mph
Humidity: 97%   Direction: 350°N
Pressure: 29.98"   Gusts: NA
Location:  28.39°N, 96.84°W
Report Text: KPKV 191255Z AUTO 35012KT 7SM +RA SCT003 BKN008 OVC012 16/16 A2998 RMK AO2 P0009 T01600156
Loading
Personal Weather Stations






























Interactive Weather Map New forecast layout! Learn more

10-Day Weather Forecast

Advertisements
Track Severe Weather on mobile